createdAt,value
2018-08-17T00:00:24.435Z,19.40
2018-08-17T00:02:52.969Z,19.50
2018-08-17T00:05:21.623Z,19.50
2018-08-17T00:07:50.363Z,19.40
2018-08-17T00:10:18.985Z,19.30
2018-08-17T00:12:47.532Z,19.20
2018-08-17T00:15:16.092Z,19.20
2018-08-17T00:17:44.699Z,19.10
2018-08-17T00:20:13.284Z,19.10
2018-08-17T00:22:41.834Z,19.10
2018-08-17T00:25:10.388Z,19.20
2018-08-17T00:27:39.059Z,19.10
2018-08-17T00:30:08.428Z,19.10
2018-08-17T00:32:36.988Z,19.10
2018-08-17T00:35:05.564Z,19.10
2018-08-17T00:37:34.414Z,19.10
2018-08-17T00:40:03.012Z,19.00
2018-08-17T00:42:31.563Z,19.00
2018-08-17T00:45:00.198Z,19.00
2018-08-17T00:47:28.746Z,19.00
2018-08-17T00:49:57.252Z,18.80
2018-08-17T00:52:25.785Z,18.80
2018-08-17T00:54:54.321Z,18.80
2018-08-17T00:57:22.848Z,18.90
2018-08-17T00:59:51.388Z,19.00
2018-08-17T01:02:19.919Z,19.00
2018-08-17T01:04:48.425Z,18.90
2018-08-17T01:07:16.961Z,18.90
2018-08-17T01:09:45.524Z,18.90
2018-08-17T01:12:14.063Z,18.90
2018-08-17T01:14:42.571Z,18.80
2018-08-17T01:17:11.135Z,18.70
2018-08-17T01:19:39.693Z,18.70
2018-08-17T01:22:08.229Z,18.60
2018-08-17T01:24:36.777Z,18.60
2018-08-17T01:27:05.340Z,18.60
2018-08-17T01:29:33.878Z,18.60
2018-08-17T01:32:02.415Z,18.60
2018-08-17T01:34:30.931Z,18.60
2018-08-17T01:36:59.463Z,18.50
2018-08-17T01:39:28.022Z,18.50
2018-08-17T01:41:56.547Z,18.50
2018-08-17T01:44:25.084Z,18.50
2018-08-17T01:46:53.623Z,18.60
2018-08-17T01:49:22.107Z,18.70
2018-08-17T01:51:52.785Z,18.70
2018-08-17T01:54:21.322Z,18.80
2018-08-17T01:56:49.836Z,18.90
2018-08-17T01:59:18.364Z,19.00
2018-08-17T02:01:46.930Z,19.10
2018-08-17T02:04:15.495Z,19.10
2018-08-17T02:06:44.115Z,19.10
2018-08-17T02:09:13.074Z,19.00
2018-08-17T02:11:41.990Z,19.00
2018-08-17T02:14:10.631Z,18.90
2018-08-17T02:16:39.664Z,18.80
2018-08-17T02:19:08.201Z,18.80
2018-08-17T02:21:36.753Z,18.70
2018-08-17T02:24:05.327Z,18.60
2018-08-17T02:26:33.885Z,18.60
2018-08-17T02:29:02.424Z,18.60
2018-08-17T02:31:30.946Z,18.60
2018-08-17T02:33:59.451Z,18.50
2018-08-17T02:36:28.001Z,18.40
2018-08-17T02:38:56.606Z,18.30
2018-08-17T02:41:25.150Z,18.20
2018-08-17T02:43:53.678Z,18.30
2018-08-17T02:46:22.198Z,18.40
2018-08-17T02:48:50.714Z,18.40
2018-08-17T02:51:19.250Z,18.40
2018-08-17T02:53:47.790Z,18.40
2018-08-17T02:56:16.317Z,18.50
2018-08-17T02:58:44.845Z,18.50
2018-08-17T03:01:13.382Z,18.50
2018-08-17T03:03:41.935Z,18.40
2018-08-17T03:06:10.456Z,18.30
2018-08-17T03:08:38.993Z,18.30
2018-08-17T03:11:07.560Z,18.20
2018-08-17T03:13:36.132Z,18.20
2018-08-17T03:16:04.702Z,18.10
2018-08-17T03:18:33.275Z,18.00
2018-08-17T03:21:01.853Z,18.00
2018-08-17T03:23:30.366Z,17.90
2018-08-17T03:25:58.880Z,17.80
2018-08-17T03:28:27.401Z,17.80
2018-08-17T03:30:55.954Z,17.80
2018-08-17T03:33:24.481Z,17.80
2018-08-17T03:35:53.023Z,17.80
2018-08-17T03:38:21.550Z,17.80
2018-08-17T03:40:50.111Z,17.90
2018-08-17T03:43:18.656Z,17.90
2018-08-17T03:45:47.171Z,17.80
2018-08-17T03:48:15.703Z,17.70
2018-08-17T03:50:44.280Z,17.70
2018-08-17T03:53:12.795Z,17.60
2018-08-17T03:55:41.317Z,17.60
2018-08-17T03:58:09.828Z,17.70
2018-08-17T04:00:38.348Z,17.70
2018-08-17T04:03:06.938Z,17.80
2018-08-17T04:05:35.542Z,17.70
2018-08-17T04:08:04.182Z,17.70
2018-08-17T04:10:32.690Z,17.70
2018-08-17T04:13:01.226Z,17.60
2018-08-17T04:15:29.776Z,17.50
2018-08-17T04:17:58.251Z,17.50
2018-08-17T04:20:26.776Z,17.40
2018-08-17T04:22:55.320Z,17.30
2018-08-17T04:25:23.861Z,17.40
2018-08-17T04:27:52.398Z,17.40
2018-08-17T04:30:20.931Z,17.40
2018-08-17T04:32:49.467Z,17.40
2018-08-17T04:35:18.069Z,17.40
2018-08-17T04:37:46.583Z,17.40
2018-08-17T04:40:15.119Z,17.40
2018-08-17T04:42:43.635Z,17.40
2018-08-17T04:45:12.235Z,17.40
2018-08-17T04:47:40.797Z,17.40
2018-08-17T04:50:10.032Z,17.50
2018-08-17T04:52:39.295Z,17.50
2018-08-17T04:55:08.249Z,17.40
2018-08-17T04:57:36.909Z,17.50
2018-08-17T05:00:07.021Z,17.50
2018-08-17T05:02:35.779Z,17.50
2018-08-17T05:05:04.537Z,17.40
2018-08-17T05:07:33.055Z,17.40
2018-08-17T05:10:01.573Z,17.40
2018-08-17T05:12:30.113Z,17.30
2018-08-17T05:14:58.640Z,17.30
2018-08-17T05:17:27.166Z,17.30
2018-08-17T05:19:55.710Z,17.30
2018-08-17T05:22:24.248Z,17.40
2018-08-17T05:24:52.988Z,17.40
2018-08-17T05:27:21.506Z,17.50
2018-08-17T05:29:50.028Z,17.60
2018-08-17T05:32:18.641Z,17.60
2018-08-17T05:34:47.170Z,17.60
2018-08-17T05:37:15.677Z,17.50
2018-08-17T05:39:44.216Z,17.50
2018-08-17T05:42:12.790Z,17.50
2018-08-17T05:44:41.325Z,17.50
2018-08-17T05:47:09.880Z,17.60
2018-08-17T05:49:38.414Z,17.60
2018-08-17T05:52:07.090Z,17.70
2018-08-17T05:54:35.623Z,17.70
2018-08-17T05:57:04.205Z,17.80
2018-08-17T05:59:32.719Z,17.80
2018-08-17T06:02:01.265Z,17.90
2018-08-17T06:04:29.819Z,18.00
2018-08-17T06:06:58.349Z,18.10
2018-08-17T06:09:26.897Z,18.30
2018-08-17T06:11:55.435Z,18.40
2018-08-17T06:14:24.018Z,18.50
2018-08-17T06:16:52.581Z,18.60
2018-08-17T06:19:21.141Z,18.70
2018-08-17T06:21:49.667Z,18.80
2018-08-17T06:24:18.223Z,18.90
2018-08-17T06:26:46.780Z,19.20
2018-08-17T06:29:15.363Z,19.50
2018-08-17T06:31:44.061Z,19.60
2018-08-17T06:34:12.515Z,19.60
2018-08-17T06:36:41.123Z,19.60
2018-08-17T06:39:11.152Z,19.50
2018-08-17T06:41:39.734Z,19.60
2018-08-17T06:44:08.353Z,19.60
2018-08-17T06:46:36.966Z,19.60
2018-08-17T06:49:05.603Z,19.60
2018-08-17T06:51:34.169Z,19.70
2018-08-17T06:54:02.669Z,19.60
2018-08-17T06:56:31.259Z,19.60
2018-08-17T06:58:59.809Z,19.60
2018-08-17T07:01:28.331Z,19.90
2018-08-17T07:03:56.886Z,20.20
2018-08-17T07:06:25.456Z,20.50
2018-08-17T07:08:54.080Z,20.70
2018-08-17T07:11:22.784Z,20.80
2018-08-17T07:13:51.402Z,20.80
2018-08-17T07:16:19.917Z,20.90
2018-08-17T07:18:48.480Z,20.90
2018-08-17T07:21:17.529Z,20.90
2018-08-17T07:23:46.108Z,21.10
2018-08-17T07:26:14.679Z,21.30
2018-08-17T07:28:43.210Z,21.30
2018-08-17T07:31:11.765Z,21.30
2018-08-17T07:33:40.332Z,21.30
2018-08-17T07:36:08.868Z,21.50
2018-08-17T07:38:37.436Z,21.90
2018-08-17T07:41:06.033Z,22.20
2018-08-17T07:43:34.583Z,22.40
2018-08-17T07:46:03.112Z,22.60
2018-08-17T07:48:31.657Z,22.80
2018-08-17T07:51:00.293Z,22.90
2018-08-17T07:53:28.815Z,22.70
2018-08-17T07:55:57.347Z,22.60
2018-08-17T07:58:25.925Z,22.60
2018-08-17T08:00:54.473Z,22.80
2018-08-17T08:03:23.035Z,23.00
2018-08-17T08:05:51.571Z,23.30
2018-08-17T08:08:20.107Z,23.50
2018-08-17T08:10:48.641Z,23.80
2018-08-17T08:13:17.185Z,24.10
2018-08-17T08:15:45.731Z,24.40
2018-08-17T08:18:14.351Z,24.60
2018-08-17T08:20:44.472Z,24.80
2018-08-17T08:23:21.609Z,24.90
2018-08-17T08:25:50.232Z,25.00
2018-08-17T08:28:18.842Z,24.80
2018-08-17T08:30:47.674Z,24.90
2018-08-17T08:33:16.216Z,24.90
2018-08-17T08:35:44.926Z,25.00
2018-08-17T08:38:13.512Z,25.00
2018-08-17T08:40:42.083Z,25.10
2018-08-17T08:43:10.628Z,25.20
2018-08-17T08:45:39.422Z,25.40
2018-08-17T08:48:08.776Z,25.60
2018-08-17T08:50:37.900Z,25.40
2018-08-17T08:53:07.124Z,25.20
2018-08-17T08:55:35.692Z,25.10
2018-08-17T08:58:04.346Z,25.40
2018-08-17T09:00:32.876Z,25.50
2018-08-17T09:03:01.423Z,25.90
2018-08-17T09:05:29.972Z,26.30
2018-08-17T09:07:58.619Z,26.40
2018-08-17T09:10:27.172Z,26.40
2018-08-17T09:12:55.704Z,26.70
2018-08-17T09:15:24.301Z,26.90
2018-08-17T09:17:52.890Z,27.20
2018-08-17T09:20:21.568Z,27.30
2018-08-17T09:22:49.990Z,27.30
2018-08-17T09:25:18.582Z,27.50
2018-08-17T09:27:47.100Z,27.50
2018-08-17T09:30:15.840Z,27.60
2018-08-17T09:32:44.395Z,27.70
2018-08-17T09:35:13.783Z,27.90
2018-08-17T09:37:42.326Z,27.80
2018-08-17T09:40:11.583Z,27.90
2018-08-17T09:42:40.155Z,28.00
2018-08-17T09:45:10.535Z,28.20
2018-08-17T09:47:39.083Z,28.40
2018-08-17T09:50:10.739Z,28.40
2018-08-17T09:52:39.482Z,28.40
2018-08-17T09:55:08.055Z,28.10
2018-08-17T09:57:36.651Z,27.80
2018-08-17T10:00:06.842Z,27.50
2018-08-17T10:02:40.853Z,27.20
2018-08-17T10:05:14.648Z,26.90
2018-08-17T10:07:48.498Z,26.80
2018-08-17T10:10:22.492Z,26.70
2018-08-17T10:12:51.741Z,27.00
2018-08-17T10:15:21.736Z,27.10
2018-08-17T10:17:50.307Z,27.30
2018-08-17T10:20:22.045Z,27.60
2018-08-17T10:22:50.592Z,27.80
2018-08-17T10:25:22.175Z,28.00
2018-08-17T10:27:51.945Z,28.30
2018-08-17T10:30:21.343Z,28.50
2018-08-17T10:32:55.169Z,28.70
2018-08-17T10:35:25.991Z,28.80
2018-08-17T10:37:56.837Z,29.10
2018-08-17T10:40:25.846Z,29.40
2018-08-17T10:42:54.471Z,29.60
2018-08-17T10:45:25.164Z,29.60
2018-08-17T10:47:53.959Z,29.70
2018-08-17T10:50:23.784Z,29.70
2018-08-17T10:52:53.433Z,29.90
2018-08-17T10:55:23.363Z,30.20
2018-08-17T10:57:52.050Z,30.20
2018-08-17T11:00:21.976Z,30.40
2018-08-17T11:02:50.513Z,30.50
2018-08-17T11:05:19.224Z,30.80
2018-08-17T11:07:48.915Z,30.90
2018-08-17T11:10:20.305Z,31.20
2018-08-17T11:12:48.807Z,31.40
2018-08-17T11:15:17.395Z,31.30
2018-08-17T11:17:46.470Z,31.10
2018-08-17T11:20:15.662Z,31.10
2018-08-17T11:22:44.254Z,31.20
2018-08-17T11:25:12.818Z,31.30
2018-08-17T11:27:41.357Z,31.50
2018-08-17T11:30:11.832Z,31.70
2018-08-17T11:32:40.820Z,31.90
2018-08-17T11:35:09.448Z,31.90
2018-08-17T11:37:38.073Z,31.70
2018-08-17T11:40:08.376Z,31.30
2018-08-17T11:42:45.192Z,31.30
2018-08-17T11:45:22.507Z,31.10
2018-08-17T11:47:51.752Z,30.80
2018-08-17T11:50:21.715Z,30.80
2018-08-17T11:52:55.226Z,30.80
2018-08-17T11:55:24.862Z,30.70
2018-08-17T11:57:53.562Z,30.40
2018-08-17T12:00:22.156Z,30.20
2018-08-17T12:02:50.722Z,29.90
2018-08-17T12:05:19.288Z,29.60
2018-08-17T12:07:48.362Z,29.20
2018-08-17T12:10:17.034Z,28.90
2018-08-17T12:12:46.113Z,28.60
2018-08-17T12:15:15.235Z,28.30
2018-08-17T12:17:43.785Z,28.20
2018-08-17T12:20:12.299Z,28.10
2018-08-17T12:22:40.814Z,27.90
2018-08-17T12:25:10.036Z,27.90
2018-08-17T12:27:38.811Z,27.80
2018-08-17T12:30:08.567Z,27.80
2018-08-17T12:32:37.122Z,27.70
2018-08-17T12:35:05.777Z,28.00
2018-08-17T12:37:34.370Z,28.40
2018-08-17T12:40:02.981Z,28.40
2018-08-17T12:42:35.169Z,28.40
2018-08-17T12:45:09.033Z,28.40
2018-08-17T12:47:37.619Z,28.30
2018-08-17T12:50:06.185Z,28.10
2018-08-17T12:52:35.313Z,28.10
2018-08-17T12:55:04.223Z,28.20
2018-08-17T12:57:42.163Z,28.10
2018-08-17T13:00:11.783Z,28.00
2018-08-17T13:02:40.391Z,28.00
2018-08-17T13:05:08.970Z,28.00
2018-08-17T13:07:37.558Z,28.10
2018-08-17T13:10:06.218Z,28.10
2018-08-17T13:12:34.738Z,28.10
2018-08-17T13:15:03.376Z,28.10
2018-08-17T13:17:37.946Z,28.20
2018-08-17T13:20:06.926Z,28.30
2018-08-17T13:22:35.567Z,28.30
2018-08-17T13:25:04.240Z,28.30
2018-08-17T13:27:32.786Z,28.30
2018-08-17T13:30:01.418Z,28.30
2018-08-17T13:32:29.944Z,28.30
2018-08-17T13:34:58.494Z,28.20
2018-08-17T13:37:27.070Z,28.20
2018-08-17T13:39:55.684Z,28.10
2018-08-17T13:42:24.223Z,28.10
2018-08-17T13:44:52.764Z,28.10
2018-08-17T13:47:21.309Z,28.10
2018-08-17T13:49:49.835Z,28.10
2018-08-17T13:52:18.381Z,28.10
2018-08-17T13:54:46.916Z,28.10
2018-08-17T13:57:15.438Z,28.10
2018-08-17T13:59:43.977Z,27.90
2018-08-17T14:02:12.603Z,27.80
2018-08-17T14:04:41.081Z,27.70
2018-08-17T14:07:09.633Z,27.70
2018-08-17T14:09:38.260Z,27.60
2018-08-17T14:12:07.343Z,27.60
2018-08-17T14:14:35.893Z,27.50
2018-08-17T14:17:04.655Z,27.50
2018-08-17T14:19:33.197Z,27.40
2018-08-17T14:22:01.769Z,27.30
2018-08-17T14:24:30.414Z,27.30
2018-08-17T14:26:59.011Z,27.30
2018-08-17T14:29:27.555Z,27.30
2018-08-17T14:31:56.121Z,27.30
2018-08-17T14:34:24.752Z,27.20
2018-08-17T14:36:53.277Z,27.20
2018-08-17T14:39:21.845Z,27.10
2018-08-17T14:41:55.859Z,27.10
2018-08-17T14:44:24.811Z,27.20
2018-08-17T14:46:53.583Z,27.20
2018-08-17T14:49:22.172Z,27.10
2018-08-17T14:51:50.863Z,27.00
2018-08-17T14:54:19.465Z,27.00
2018-08-17T14:56:48.052Z,26.90
2018-08-17T14:59:17.161Z,26.80
2018-08-17T15:01:45.832Z,26.80
2018-08-17T15:04:14.536Z,26.70
2018-08-17T15:06:43.060Z,26.70
2018-08-17T15:09:13.152Z,26.60
2018-08-17T15:11:42.546Z,26.40
2018-08-17T15:14:12.664Z,26.30
2018-08-17T15:16:41.447Z,26.20
2018-08-17T15:19:10.014Z,26.20
2018-08-17T15:21:38.890Z,26.00
2018-08-17T15:24:07.596Z,25.90
2018-08-17T15:26:36.236Z,25.50
2018-08-17T15:29:04.760Z,25.20
2018-08-17T15:31:33.364Z,25.00
2018-08-17T15:34:01.923Z,25.00
2018-08-17T15:36:30.476Z,25.00
2018-08-17T15:38:59.018Z,25.00
2018-08-17T15:41:27.637Z,24.90
2018-08-17T15:43:56.052Z,24.40
2018-08-17T15:46:24.576Z,23.90
2018-08-17T15:48:55.322Z,23.40
2018-08-17T15:51:23.910Z,23.00
2018-08-17T15:53:52.497Z,22.60
2018-08-17T15:56:21.900Z,22.30
2018-08-17T15:58:50.456Z,22.10
2018-08-17T16:01:19.055Z,21.80
2018-08-17T16:03:47.604Z,21.50
2018-08-17T16:06:16.135Z,21.30
2018-08-17T16:08:44.693Z,21.20
2018-08-17T16:11:13.407Z,21.10
2018-08-17T16:13:41.957Z,21.00
2018-08-17T16:16:10.512Z,21.00
2018-08-17T16:18:39.061Z,20.90
2018-08-17T16:21:07.692Z,20.80
2018-08-17T16:23:36.216Z,20.60
2018-08-17T16:26:05.193Z,20.50
2018-08-17T16:28:33.765Z,20.50
2018-08-17T16:31:02.308Z,20.40
2018-08-17T16:33:30.867Z,20.30
2018-08-17T16:35:59.440Z,20.40
2018-08-17T16:38:28.007Z,20.40
2018-08-17T16:40:56.606Z,20.50
2018-08-17T16:43:36.113Z,20.50
2018-08-17T16:46:04.711Z,20.40
2018-08-17T16:48:33.210Z,20.40
2018-08-17T16:51:01.736Z,20.30
2018-08-17T16:53:30.262Z,20.20
2018-08-17T16:55:58.822Z,20.10
2018-08-17T16:58:27.578Z,20.20
2018-08-17T17:00:56.170Z,20.10
2018-08-17T17:03:24.694Z,20.00
2018-08-17T17:06:00.555Z,19.90
2018-08-17T17:08:29.513Z,19.90
2018-08-17T17:10:58.238Z,19.80
2018-08-17T17:13:26.783Z,19.80
2018-08-17T17:16:01.840Z,19.70
2018-08-17T17:18:30.335Z,19.90
2018-08-17T17:20:58.910Z,19.90
2018-08-17T17:23:27.418Z,19.90
2018-08-17T17:25:55.962Z,19.80
2018-08-17T17:28:30.577Z,19.70
2018-08-17T17:30:59.400Z,19.70
2018-08-17T17:33:27.897Z,19.60
2018-08-17T17:35:56.461Z,19.60
2018-08-17T17:38:25.016Z,19.60
2018-08-17T17:40:53.563Z,19.60
2018-08-17T17:43:22.093Z,19.60
2018-08-17T17:45:50.635Z,19.60
2018-08-17T17:48:19.169Z,19.50
2018-08-17T17:50:47.737Z,19.50
2018-08-17T17:53:16.273Z,19.40
2018-08-17T17:55:49.383Z,19.30
2018-08-17T17:58:18.413Z,19.40
2018-08-17T18:00:57.964Z,19.30
2018-08-17T18:03:30.724Z,19.30
2018-08-17T18:06:04.775Z,19.30
2018-08-17T18:08:33.307Z,19.30
2018-08-17T18:11:01.866Z,19.20
2018-08-17T18:13:30.759Z,19.20
2018-08-17T18:15:59.329Z,19.20
2018-08-17T18:18:27.839Z,19.20
2018-08-17T18:20:56.365Z,19.30
2018-08-17T18:23:24.916Z,19.40
2018-08-17T18:25:53.460Z,19.40
2018-08-17T18:28:22.014Z,19.40
2018-08-17T18:30:50.654Z,19.40
2018-08-17T18:33:19.082Z,19.40
2018-08-17T18:35:47.589Z,19.30
2018-08-17T18:38:16.136Z,19.20
2018-08-17T18:40:44.664Z,19.20
2018-08-17T18:43:13.168Z,19.10
2018-08-17T18:45:41.702Z,19.10
2018-08-17T18:48:10.254Z,19.10
2018-08-17T18:50:38.810Z,18.80
2018-08-17T18:53:07.346Z,18.70
2018-08-17T18:55:35.913Z,18.50
2018-08-17T18:58:04.455Z,18.40
2018-08-17T19:00:33.065Z,18.40
2018-08-17T19:03:01.595Z,18.40
2018-08-17T19:05:30.166Z,18.40
2018-08-17T19:07:58.691Z,18.50
2018-08-17T19:10:27.196Z,18.50
2018-08-17T19:12:55.741Z,18.50
2018-08-17T19:15:24.271Z,18.50
2018-08-17T19:17:52.855Z,18.50
2018-08-17T19:20:21.457Z,18.50
2018-08-17T19:22:49.965Z,18.50
2018-08-17T19:25:18.485Z,18.50
2018-08-17T19:27:46.985Z,18.40
2018-08-17T19:30:22.080Z,18.30
2018-08-17T19:32:51.445Z,18.20
2018-08-17T19:35:20.022Z,18.20
2018-08-17T19:37:49.235Z,18.30
2018-08-17T19:40:17.900Z,18.30
2018-08-17T19:42:46.547Z,18.40
2018-08-17T19:45:15.121Z,18.40
2018-08-17T19:47:43.710Z,18.30
2018-08-17T19:50:12.490Z,18.30
2018-08-17T19:52:41.283Z,18.20
2018-08-17T19:55:09.872Z,18.10
2018-08-17T19:57:38.402Z,18.00
2018-08-17T20:00:09.213Z,18.00
2018-08-17T20:02:37.763Z,18.10
2018-08-17T20:05:06.676Z,18.00
2018-08-17T20:07:35.229Z,18.10
2018-08-17T20:10:03.914Z,18.00
2018-08-17T20:12:32.464Z,18.00
2018-08-17T20:15:01.002Z,17.90
2018-08-17T20:17:29.582Z,17.90
2018-08-17T20:19:58.102Z,17.90
2018-08-17T20:22:26.692Z,17.90
2018-08-17T20:24:55.245Z,18.00
2018-08-17T20:27:23.784Z,18.00
2018-08-17T20:29:52.415Z,18.00
2018-08-17T20:32:20.970Z,18.00
2018-08-17T20:34:50.113Z,18.00
2018-08-17T20:37:18.870Z,18.00
2018-08-17T20:39:47.785Z,17.90
2018-08-17T20:42:16.344Z,17.80
2018-08-17T20:44:44.884Z,17.80
2018-08-17T20:47:13.433Z,17.70
2018-08-17T20:49:41.961Z,17.80
2018-08-17T20:52:10.525Z,17.70
2018-08-17T20:54:39.093Z,17.70
2018-08-17T20:57:07.691Z,17.70
2018-08-17T20:59:36.207Z,17.60
2018-08-17T21:02:04.776Z,17.60
2018-08-17T21:04:33.343Z,17.60
2018-08-17T21:07:02.048Z,17.60
2018-08-17T21:09:30.572Z,17.60
2018-08-17T21:11:59.119Z,17.60
2018-08-17T21:14:27.664Z,17.60
2018-08-17T21:16:56.200Z,17.60
2018-08-17T21:19:33.075Z,17.60
2018-08-17T21:22:01.779Z,17.60
2018-08-17T21:24:30.301Z,17.60
2018-08-17T21:26:58.871Z,17.50
2018-08-17T21:29:27.589Z,17.40
2018-08-17T21:31:55.963Z,17.40
2018-08-17T21:34:24.528Z,17.30
2018-08-17T21:36:54.116Z,17.20
2018-08-17T21:39:22.639Z,17.30
2018-08-17T21:41:51.202Z,17.20
2018-08-17T21:44:20.697Z,17.30
2018-08-17T21:47:05.349Z,17.30
2018-08-17T21:49:35.199Z,17.30
2018-08-17T21:52:08.720Z,17.40
2018-08-17T21:54:37.292Z,17.40
2018-08-17T21:59:35.008Z,17.40
2018-08-17T22:02:04.932Z,17.40
2018-08-17T22:04:33.584Z,17.40
2018-08-17T22:07:05.925Z,17.50
2018-08-17T22:09:37.892Z,17.40
2018-08-17T22:12:07.198Z,17.40
2018-08-17T22:14:35.826Z,17.30
2018-08-17T22:17:04.526Z,17.30
2018-08-17T22:19:39.024Z,17.20
2018-08-17T22:22:09.598Z,17.30
2018-08-17T22:24:44.220Z,17.30
2018-08-17T22:27:15.888Z,17.30
2018-08-17T22:29:46.150Z,17.30
2018-08-17T22:32:14.623Z,17.30
2018-08-17T22:34:43.188Z,17.30
2018-08-17T22:37:11.751Z,17.30
2018-08-17T22:39:40.287Z,17.30
2018-08-17T22:42:08.901Z,17.30
2018-08-17T22:44:37.399Z,17.30
2018-08-17T22:47:25.731Z,17.20
2018-08-17T22:49:56.577Z,17.10
2018-08-17T22:52:25.211Z,17.10
2018-08-17T22:54:56.741Z,17.00
2018-08-17T22:57:25.891Z,17.00
2018-08-17T23:00:11.658Z,17.00
2018-08-17T23:02:41.231Z,17.00
2018-08-17T23:05:14.670Z,17.00
2018-08-17T23:07:43.291Z,16.90
2018-08-17T23:10:14.457Z,16.90
2018-08-17T23:12:43.834Z,16.90
2018-08-17T23:15:12.931Z,16.90
2018-08-17T23:17:44.481Z,16.90
2018-08-17T23:20:13.051Z,16.90
2018-08-17T23:22:47.436Z,16.80
2018-08-17T23:25:16.114Z,16.80
2018-08-17T23:27:44.868Z,16.80
2018-08-17T23:30:13.515Z,16.80
2018-08-17T23:32:42.180Z,16.80
2018-08-17T23:35:10.721Z,16.80
2018-08-17T23:37:39.688Z,16.80
2018-08-17T23:40:08.938Z,16.90
2018-08-17T23:42:37.510Z,17.00
2018-08-17T23:45:08.215Z,16.90
2018-08-17T23:47:36.770Z,16.90
2018-08-17T23:50:06.040Z,16.80
2018-08-17T23:52:34.647Z,16.80
2018-08-17T23:55:03.264Z,16.90
2018-08-17T23:57:31.814Z,16.90
